Rechercher aéroport 
image banner adimage banner adimage banner ad
image banner ad

PS82 - Lazy J Ranch

Situé à Springbrook, United States

ICAO - PS82, IATA -

Données fournies par Airmate  

Information générale

Coordonnées: N41°17'45" W75°35'52"
Élévation : 1650 feet MSL.
Variation magnétique : -12° East
Voir autres Aéroports à Pennsylvania

Données opérationnelles

Special qualification required
Heure actuelle UTC:
Heure actuelle locale:
Météo à : KAVP - Wilkes-Barre/Scranton Intl ( 12 km )
METAR: KAVP 150654Z 28006KT 7SM OVC004 17/16 A2979 RMK AO2 SLP080 T01720161
TAF: KAVP 150532Z 1506/1606 VRB03KT P6SM BKN008 TEMPO 1509/1512 1 1/2SM BR FM151200 VRB03KT 5SM BR BKN020 FM151600 32006KT P6SM BKN035 FM151800 31009G17KT P6SM -SHRA BKN050 FM160100 34004KT P6SM SCT050
Voir NOTAMs / SUP AIP / TFR affectant cet aéroport [VIEW]
Fréquences de communication: [VIEW]

Pistes:

Identifiant RWYQFULongueur (ft)Largeur (ft)SurfaceLDA (ft)
021480100GRASS
201480100GRASS

Coordonnées de l'aéroport

Adresse: Springbrook United States

Vue satellite de PS82